createdAt,value
2023-01-15T00:02:06.902Z,101357.71
2023-01-15T00:04:34.149Z,101360.96
2023-01-15T00:07:01.389Z,101361.13
2023-01-15T00:09:28.145Z,101365.80
2023-01-15T00:11:55.003Z,101370.11
2023-01-15T00:14:21.827Z,101368.23
2023-01-15T00:16:52.863Z,101369.64
2023-01-15T00:19:19.812Z,101373.08
2023-01-15T00:21:46.656Z,101373.78
2023-01-15T00:24:32.131Z,101374.84
2023-01-15T00:27:17.653Z,101373.11
2023-01-15T00:29:47.021Z,101372.92
2023-01-15T00:32:13.756Z,101370.04
2023-01-15T00:34:40.520Z,101372.17
2023-01-15T00:37:07.340Z,101368.31
2023-01-15T00:39:35.004Z,101363.56
2023-01-15T00:42:02.975Z,101360.41
2023-01-15T00:44:33.402Z,101357.45
2023-01-15T00:47:00.579Z,101361.72
2023-01-15T00:49:27.300Z,101358.44
2023-01-15T00:51:54.358Z,101360.66
2023-01-15T00:54:21.387Z,101360.05
2023-01-15T00:56:48.059Z,101352.06
2023-01-15T00:59:14.875Z,101350.55
2023-01-15T01:01:42.944Z,101338.60
2023-01-15T01:04:09.889Z,101338.40
2023-01-15T01:06:36.729Z,101333.15
2023-01-15T01:09:03.674Z,101326.54
2023-01-15T01:11:33.894Z,101324.57
2023-01-15T01:14:01.773Z,101321.99
2023-01-15T01:16:32.938Z,101320.61
2023-01-15T01:19:03.236Z,101319.33
2023-01-15T01:21:31.506Z,101324.35
2023-01-15T01:23:59.891Z,101323.23
2023-01-15T01:26:28.012Z,101321.23
2023-01-15T01:28:57.300Z,101315.85
2023-01-15T01:31:24.907Z,101313.59
2023-01-15T01:33:55.456Z,101309.60
2023-01-15T01:36:28.147Z,101308.09
2023-01-15T01:38:55.280Z,101311.08
2023-01-15T01:41:22.544Z,101312.59
2023-01-15T01:44:03.739Z,101314.23
2023-01-15T01:46:33.319Z,101314.61
2023-01-15T01:49:10.709Z,101308.48
2023-01-15T01:51:42.985Z,101308.73
2023-01-15T01:54:13.624Z,101310.77
2023-01-15T01:56:41.377Z,101311.88
2023-01-15T01:59:09.143Z,101312.83
2023-01-15T02:01:36.097Z,101310.59
2023-01-15T02:04:07.230Z,101307.25
2023-01-15T02:06:35.409Z,101304.98
2023-01-15T02:09:03.683Z,101300.32
2023-01-15T02:11:32.471Z,101300.67
2023-01-15T02:14:10.272Z,101302.25
2023-01-15T02:16:48.172Z,101305.07
2023-01-15T02:19:29.866Z,101305.59
2023-01-15T02:22:34.082Z,101313.34
2023-01-15T02:25:52.135Z,101311.45
2023-01-15T02:28:25.767Z,101309.82
2023-01-15T02:31:09.271Z,101303.77
2023-01-15T02:33:42.053Z,101294.48
2023-01-15T02:36:12.368Z,101294.92
2023-01-15T02:38:45.321Z,101292.42
2023-01-15T02:41:17.899Z,101291.29
2023-01-15T02:43:50.800Z,101295.23
2023-01-15T02:46:19.475Z,101294.91
2023-01-15T02:48:52.318Z,101295.26
2023-01-15T02:51:26.810Z,101293.64
2023-01-15T02:53:59.420Z,101294.83
2023-01-15T02:56:29.611Z,101289.03
2023-01-15T02:59:01.869Z,101287.36
2023-01-15T03:01:37.436Z,101289.39
2023-01-15T03:04:12.705Z,101280.81
2023-01-15T03:06:49.819Z,101281.20
2023-01-15T03:09:19.791Z,101283.92
2023-01-15T03:12:00.976Z,101286.81
2023-01-15T03:14:43.053Z,101292.13
2023-01-15T03:17:22.597Z,101291.13
2023-01-15T03:19:58.296Z,101296.84
2023-01-15T03:22:26.207Z,101293.77
2023-01-15T03:25:11.380Z,101295.77
2023-01-15T03:27:44.574Z,101291.34
2023-01-15T03:30:17.047Z,101290.60
2023-01-15T03:32:43.890Z,101292.11
2023-01-15T03:35:47.706Z,101286.23
2023-01-15T03:38:41.991Z,101287.73
2023-01-15T03:41:19.270Z,101285.61
2023-01-15T03:44:06.843Z,101288.77
2023-01-15T03:47:01.912Z,101286.95
2023-01-15T03:49:44.318Z,101287.55
2023-01-15T03:52:31.409Z,101281.31
2023-01-15T03:55:19.177Z,101285.22
2023-01-15T03:57:57.277Z,101288.32
2023-01-15T04:00:36.004Z,101290.48
2023-01-15T04:03:08.986Z,101285.23
2023-01-15T04:05:37.987Z,101286.31
2023-01-15T04:08:06.568Z,101282.12
2023-01-15T04:10:33.822Z,101279.52
2023-01-15T04:13:02.294Z,101279.67
2023-01-15T04:15:29.452Z,101283.55
2023-01-15T04:17:56.497Z,101280.46
2023-01-15T04:20:25.322Z,101282.93
2023-01-15T04:22:52.329Z,101279.58
2023-01-15T04:25:18.996Z,101275.92
2023-01-15T04:27:46.123Z,101274.44
2023-01-15T04:30:16.718Z,101279.90
2023-01-15T04:32:43.636Z,101274.73
2023-01-15T04:35:10.641Z,101276.23
2023-01-15T04:37:37.408Z,101272.35
2023-01-15T04:40:07.876Z,101274.19
2023-01-15T04:42:53.595Z,101272.57
2023-01-15T04:45:20.543Z,101276.89
2023-01-15T04:47:47.490Z,101277.71
2023-01-15T04:50:14.957Z,101276.81
2023-01-15T04:52:41.685Z,101276.71
2023-01-15T04:55:09.934Z,101281.66
2023-01-15T04:57:38.442Z,101278.71
2023-01-15T05:00:06.006Z,101286.38
2023-01-15T05:02:32.927Z,101287.27
2023-01-15T05:04:59.729Z,101286.70
2023-01-15T05:07:26.375Z,101287.19
2023-01-15T05:09:56.346Z,101285.23
2023-01-15T05:12:23.288Z,101284.88
2023-01-15T05:14:50.136Z,101289.64
2023-01-15T05:17:17.190Z,101285.42
2023-01-15T05:19:43.922Z,101288.89
2023-01-15T05:22:11.281Z,101284.69
2023-01-15T05:24:38.323Z,101282.40
2023-01-15T05:27:05.181Z,101289.44
2023-01-15T05:29:33.452Z,101283.59
2023-01-15T05:32:00.292Z,101280.31
2023-01-15T05:34:27.132Z,101281.14
2023-01-15T05:36:54.383Z,101282.40
2023-01-15T05:39:21.190Z,101283.95
2023-01-15T05:41:51.248Z,101285.09
2023-01-15T05:44:29.351Z,101280.70
2023-01-15T05:46:59.676Z,101283.38
2023-01-15T05:49:27.970Z,101281.67
2023-01-15T05:51:55.420Z,101278.18
2023-01-15T05:54:23.593Z,101280.05
2023-01-15T05:56:50.633Z,101278.29
2023-01-15T05:59:19.932Z,101280.64
2023-01-15T06:01:46.702Z,101278.34
2023-01-15T06:04:14.336Z,101281.12
2023-01-15T06:06:42.827Z,101281.80
2023-01-15T06:09:10.149Z,101283.86
2023-01-15T06:11:37.224Z,101281.67
2023-01-15T06:14:04.577Z,101280.80
2023-01-15T06:16:32.036Z,101281.60
2023-01-15T06:19:03.739Z,101283.36
2023-01-15T06:21:33.123Z,101287.73
2023-01-15T06:24:00.039Z,101287.30
2023-01-15T06:26:27.596Z,101287.28
2023-01-15T06:28:57.104Z,101290.52
2023-01-15T06:31:27.952Z,101293.64
2023-01-15T06:33:55.713Z,101291.48
2023-01-15T06:36:25.447Z,101295.10
2023-01-15T06:38:52.770Z,101294.32
2023-01-15T06:41:42.256Z,101294.52
2023-01-15T06:44:36.734Z,101296.33
2023-01-15T06:47:24.368Z,101294.44
2023-01-15T06:49:57.222Z,101294.90
2023-01-15T06:52:25.636Z,101295.14
2023-01-15T06:54:53.289Z,101298.13
2023-01-15T06:57:20.964Z,101299.84
2023-01-15T06:59:50.399Z,101295.31
2023-01-15T07:02:18.024Z,101295.46
2023-01-15T07:04:47.627Z,101298.13
2023-01-15T07:07:17.035Z,101299.57
2023-01-15T07:09:45.056Z,101302.27
2023-01-15T07:12:12.866Z,101301.30
2023-01-15T07:14:39.719Z,101299.35
2023-01-15T07:17:09.454Z,101297.88
2023-01-15T07:19:36.686Z,101293.58
2023-01-15T07:22:03.732Z,101296.70
2023-01-15T07:24:30.870Z,101298.84
2023-01-15T07:26:57.814Z,101296.50
2023-01-15T07:29:26.708Z,101294.95
2023-01-15T07:31:53.757Z,101290.02
2023-01-15T07:34:20.465Z,101290.08
2023-01-15T07:36:47.830Z,101291.48
2023-01-15T07:39:15.211Z,101290.95
2023-01-15T07:42:03.650Z,101291.09
2023-01-15T07:44:53.649Z,101291.36
2023-01-15T07:47:41.887Z,101298.77
2023-01-15T07:50:10.214Z,101302.96
2023-01-15T07:52:37.316Z,101299.09
2023-01-15T07:55:04.771Z,101301.27
2023-01-15T07:57:31.760Z,101298.78
2023-01-15T07:59:58.620Z,101296.59
2023-01-15T08:02:26.839Z,101300.63
2023-01-15T08:04:53.786Z,101300.45
2023-01-15T08:07:20.548Z,101300.84
2023-01-15T08:09:47.375Z,101298.60
2023-01-15T08:12:32.827Z,101297.39
2023-01-15T08:15:16.173Z,101295.45
2023-01-15T08:17:48.561Z,101296.41
2023-01-15T08:20:21.739Z,101292.41
2023-01-15T08:22:49.119Z,101294.68
2023-01-15T08:25:18.988Z,101291.04
2023-01-15T08:27:46.158Z,101287.69
2023-01-15T08:30:16.140Z,101294.73
2023-01-15T08:32:45.506Z,101297.88
2023-01-15T08:35:13.292Z,101292.71
2023-01-15T08:37:41.470Z,101297.04
2023-01-15T08:40:10.600Z,101291.81
2023-01-15T08:42:37.971Z,101293.63
2023-01-15T08:45:05.553Z,101293.73
2023-01-15T08:47:32.950Z,101295.08
2023-01-15T08:50:00.450Z,101299.86
2023-01-15T08:52:27.406Z,101295.54
2023-01-15T08:54:54.336Z,101293.47
2023-01-15T08:57:21.080Z,101291.66
2023-01-15T08:59:47.847Z,101295.19
2023-01-15T09:02:15.271Z,101292.52
2023-01-15T09:04:42.242Z,101290.35
2023-01-15T09:07:09.315Z,101282.84
2023-01-15T09:09:36.218Z,101280.71
2023-01-15T09:12:03.259Z,101274.75
2023-01-15T09:14:58.189Z,101272.14
2023-01-15T09:17:17.033Z,101271.89
2023-01-15T09:19:43.941Z,101273.27
2023-01-15T09:22:11.633Z,101271.84
2023-01-15T09:24:39.228Z,101263.32
2023-01-15T09:27:06.644Z,101264.41
2023-01-15T09:29:33.389Z,101261.31
2023-01-15T09:32:00.637Z,101257.89
2023-01-15T09:34:27.887Z,101253.58
2023-01-15T09:36:54.744Z,101246.67
2023-01-15T09:39:21.681Z,101242.02
2023-01-15T09:42:12.378Z,101238.75
2023-01-15T09:45:09.846Z,101237.36
2023-01-15T09:47:46.330Z,101234.30
2023-01-15T09:50:33.190Z,101229.23
2023-01-15T09:53:21.222Z,101221.98
2023-01-15T09:55:51.667Z,101217.40
2023-01-15T09:58:25.401Z,101217.10
2023-01-15T10:00:52.446Z,101213.30
2023-01-15T10:03:40.505Z,101213.92
2023-01-15T10:06:20.045Z,101207.30
2023-01-15T10:08:49.982Z,101200.71
2023-01-15T10:11:19.646Z,101199.91
2023-01-15T10:13:50.279Z,101198.56
2023-01-15T10:16:26.714Z,101194.77
2023-01-15T10:18:57.516Z,101197.74
2023-01-15T10:21:59.768Z,101191.11
2023-01-15T10:24:29.977Z,101186.98
2023-01-15T10:26:58.893Z,101188.45
2023-01-15T10:29:28.579Z,101186.99
2023-01-15T10:32:03.401Z,101182.57
2023-01-15T10:34:58.105Z,101179.11
2023-01-15T10:37:34.988Z,101173.41
2023-01-15T10:40:22.000Z,101165.86
2023-01-15T10:42:58.164Z,101164.83
2023-01-15T10:45:33.915Z,101162.36
2023-01-15T10:48:10.996Z,101162.95
2023-01-15T10:50:38.253Z,101158.89
2023-01-15T10:53:16.151Z,101156.52
2023-01-15T10:55:49.035Z,101150.70
2023-01-15T10:58:21.840Z,101148.04
2023-01-15T11:01:00.885Z,101139.80
2023-01-15T11:03:36.813Z,101133.84
2023-01-15T11:06:07.605Z,101133.66
2023-01-15T11:11:50.789Z,101122.86
2023-01-15T11:14:36.064Z,101119.72
2023-01-15T11:17:22.157Z,101115.45
2023-01-15T11:19:52.275Z,101107.66
2023-01-15T11:22:20.043Z,101107.23
2023-01-15T11:24:58.474Z,101102.11
2023-01-15T11:27:29.975Z,101098.05
2023-01-15T11:29:59.729Z,101098.84
2023-01-15T11:32:32.197Z,101097.91
2023-01-15T11:35:18.314Z,101095.15
2023-01-15T11:37:45.237Z,101088.32
2023-01-15T11:40:22.672Z,101085.42
2023-01-15T11:43:09.594Z,101081.50
2023-01-15T11:46:07.205Z,101082.04
2023-01-15T11:49:04.026Z,101079.45
2023-01-15T11:51:42.814Z,101076.86
2023-01-15T11:54:13.445Z,101076.65
2023-01-15T11:56:43.013Z,101076.20
2023-01-15T11:59:14.189Z,101071.02
2023-01-15T12:01:59.433Z,101067.61
2023-01-15T12:04:46.035Z,101060.98
2023-01-15T12:07:14.028Z,101058.67
2023-01-15T12:10:16.280Z,101056.82
2023-01-15T12:13:22.040Z,101054.29
2023-01-15T12:16:13.570Z,101048.20
2023-01-15T12:18:58.940Z,101044.34
2023-01-15T12:21:28.838Z,101041.80
2023-01-15T12:24:14.950Z,101039.70
2023-01-15T12:26:51.006Z,101043.33
2023-01-15T12:29:26.871Z,101039.84
2023-01-15T12:32:04.843Z,101036.94
2023-01-15T12:34:54.135Z,101038.22
2023-01-15T12:37:28.458Z,101036.22
2023-01-15T12:40:05.610Z,101038.90
2023-01-15T12:42:53.994Z,101039.71
2023-01-15T12:45:27.181Z,101041.87
2023-01-15T12:48:06.421Z,101043.38
2023-01-15T12:50:44.517Z,101040.23
2023-01-15T12:53:27.254Z,101038.00
2023-01-15T12:56:01.248Z,101035.48
2023-01-15T12:58:43.241Z,101035.27
2023-01-15T13:01:13.722Z,101035.44
2023-01-15T13:03:55.979Z,101032.14
2023-01-15T13:06:26.533Z,101032.13
2023-01-15T13:09:18.437Z,101031.84
2023-01-15T13:11:45.483Z,101030.73
2023-01-15T13:14:16.833Z,101033.77
2023-01-15T13:17:28.647Z,101034.02
2023-01-15T13:20:24.470Z,101025.27
2023-01-15T13:23:06.250Z,101023.83
2023-01-15T13:25:58.074Z,101024.23
2023-01-15T13:28:27.686Z,101022.35
2023-01-15T13:30:57.320Z,101023.80
2023-01-15T13:33:29.365Z,101025.73
2023-01-15T13:36:13.306Z,101020.77
2023-01-15T13:38:46.601Z,101020.09
2023-01-15T13:41:39.757Z,101021.02
2023-01-15T13:44:20.042Z,101021.98
2023-01-15T13:46:57.609Z,101018.83
2023-01-15T13:49:39.912Z,101019.55
2023-01-15T13:52:19.965Z,101018.81
2023-01-15T13:54:48.651Z,101015.15
2023-01-15T13:57:37.227Z,101013.49
2023-01-15T14:00:29.032Z,101014.30
2023-01-15T14:03:02.281Z,101012.13
2023-01-15T14:05:34.680Z,101010.69
2023-01-15T14:08:15.162Z,101008.14
2023-01-15T14:10:42.108Z,101004.69
2023-01-15T14:13:18.026Z,101001.66
2023-01-15T14:16:03.282Z,101001.23
2023-01-15T14:18:36.129Z,100998.15
2023-01-15T14:21:37.581Z,100999.33
2023-01-15T14:24:20.087Z,101003.30
2023-01-15T14:26:54.610Z,100998.67
2023-01-15T14:29:27.497Z,100993.84
2023-01-15T14:32:30.286Z,100997.01
2023-01-15T14:35:00.816Z,100988.41
2023-01-15T14:37:47.060Z,100992.00
2023-01-15T14:40:27.785Z,100984.48
2023-01-15T14:43:04.248Z,100979.31
2023-01-15T14:45:40.855Z,100978.73
2023-01-15T14:48:29.172Z,100972.30
2023-01-15T14:51:10.340Z,100980.03
2023-01-15T14:53:48.661Z,100981.13
2023-01-15T14:56:36.086Z,100982.98
2023-01-15T14:59:22.485Z,100981.55
2023-01-15T15:01:57.552Z,100977.80
2023-01-15T15:04:48.322Z,100977.42
2023-01-15T15:07:22.020Z,100975.96
2023-01-15T15:09:57.787Z,100974.50
2023-01-15T15:12:33.529Z,100968.71
2023-01-15T15:15:30.889Z,100967.08
2023-01-15T15:18:08.278Z,100961.57
2023-01-15T15:21:02.424Z,100962.61
2023-01-15T15:23:57.169Z,100964.86
2023-01-15T15:26:29.738Z,100964.02
2023-01-15T15:28:57.718Z,100968.31
2023-01-15T15:31:28.136Z,100970.02
2023-01-15T15:33:57.026Z,100969.98
2023-01-15T15:36:27.041Z,100970.73
2023-01-15T15:39:12.115Z,100967.30
2023-01-15T15:42:01.594Z,100964.17
2023-01-15T15:45:11.984Z,100963.67
2023-01-15T15:47:59.893Z,100959.27
2023-01-15T15:50:30.795Z,100964.17
2023-01-15T15:52:58.694Z,100958.09
2023-01-15T15:55:42.124Z,100958.89
2023-01-15T15:58:22.083Z,100958.14
2023-01-15T16:00:50.290Z,100960.64
2023-01-15T16:03:26.417Z,100963.27
2023-01-15T16:06:01.753Z,100962.40
2023-01-15T16:08:31.210Z,100964.52
2023-01-15T16:11:11.733Z,100964.28
2023-01-15T16:13:43.158Z,100964.99
2023-01-15T16:16:12.928Z,100966.83
2023-01-15T16:18:48.230Z,100962.91
2023-01-15T16:21:22.648Z,100963.52
2023-01-15T16:24:21.030Z,100964.40
2023-01-15T16:26:55.661Z,100966.06
2023-01-15T16:29:26.454Z,100965.02
2023-01-15T16:31:59.065Z,100966.51
2023-01-15T16:34:30.482Z,100970.19
2023-01-15T16:36:59.426Z,100972.14
2023-01-15T16:39:28.415Z,100967.67
2023-01-15T16:41:57.294Z,100960.05
2023-01-15T16:44:31.237Z,100954.25
2023-01-15T16:47:01.323Z,100954.74
2023-01-15T16:49:30.587Z,100953.54
2023-01-15T16:52:00.389Z,100953.51
2023-01-15T16:54:29.956Z,100950.05
2023-01-15T16:57:02.934Z,100949.51
2023-01-15T16:59:30.501Z,100951.30
2023-01-15T17:02:15.015Z,100953.09
2023-01-15T17:04:44.372Z,100951.52
2023-01-15T17:07:38.842Z,100950.42
2023-01-15T17:10:19.917Z,100943.49
2023-01-15T17:12:47.286Z,100937.28
2023-01-15T17:15:14.115Z,100940.66
2023-01-15T17:17:52.022Z,100940.17
2023-01-15T17:20:23.263Z,100935.80
2023-01-15T17:22:50.433Z,100931.17
2023-01-15T17:25:21.966Z,100930.39
2023-01-15T17:27:48.711Z,100929.50
2023-01-15T17:30:16.335Z,100932.09
2023-01-15T17:32:43.223Z,100928.50
2023-01-15T17:35:24.185Z,100931.21
2023-01-15T17:37:51.132Z,100932.13
2023-01-15T17:40:18.794Z,100932.63
2023-01-15T17:42:45.947Z,100928.45
2023-01-15T17:45:15.348Z,100923.41
2023-01-15T17:47:43.423Z,100924.95
2023-01-15T17:50:10.366Z,100925.70
2023-01-15T17:52:37.108Z,100928.98
2023-01-15T17:55:23.408Z,100922.14
2023-01-15T17:58:08.678Z,100923.17
2023-01-15T18:00:55.594Z,100923.38
2023-01-15T18:03:42.550Z,100927.17
2023-01-15T18:06:12.011Z,100924.77
2023-01-15T18:08:46.442Z,100921.05
2023-01-15T18:11:13.276Z,100925.98
2023-01-15T18:13:43.113Z,100927.23
2023-01-15T18:16:10.492Z,100932.42
2023-01-15T18:18:38.312Z,100925.34
2023-01-15T18:21:05.669Z,100922.27
2023-01-15T18:23:34.605Z,100921.34
2023-01-15T18:26:08.775Z,100915.87
2023-01-15T18:28:38.608Z,100910.90
2023-01-15T18:31:06.488Z,100905.69
2023-01-15T18:33:33.846Z,100900.22
2023-01-15T18:36:12.451Z,100895.13
2023-01-15T18:38:45.620Z,100890.30
2023-01-15T18:41:34.068Z,100880.77
2023-01-15T18:44:25.898Z,100879.56
2023-01-15T18:46:56.786Z,100874.38
2023-01-15T18:49:24.089Z,100875.19
2023-01-15T18:52:11.311Z,100877.92
2023-01-15T18:54:38.358Z,100879.98
2023-01-15T18:57:05.264Z,100883.06
2023-01-15T18:59:32.763Z,100882.86
2023-01-15T19:02:04.107Z,100879.73
2023-01-15T19:04:31.391Z,100877.22
2023-01-15T19:06:59.536Z,100876.37
2023-01-15T19:09:26.365Z,100878.01
2023-01-15T19:11:54.017Z,100872.29
2023-01-15T19:14:40.560Z,100868.02
2023-01-15T19:17:34.637Z,100869.20
2023-01-15T19:20:01.722Z,100867.90
2023-01-15T19:22:48.385Z,100872.78
2023-01-15T19:25:16.354Z,100872.71
2023-01-15T19:27:47.368Z,100872.81
2023-01-15T19:30:14.337Z,100867.31
2023-01-15T19:32:42.207Z,100869.59
2023-01-15T19:35:09.359Z,100866.02
2023-01-15T19:37:38.862Z,100864.73
2023-01-15T19:40:32.129Z,100864.70
2023-01-15T19:43:18.015Z,100864.26
2023-01-15T19:46:03.668Z,100864.08
2023-01-15T19:48:51.026Z,100859.33
2023-01-15T19:51:19.506Z,100857.83
2023-01-15T19:53:47.377Z,100855.54
2023-01-15T19:56:14.831Z,100849.63
2023-01-15T19:58:41.979Z,100844.91
2023-01-15T20:01:15.610Z,100846.05
2023-01-15T20:03:42.528Z,100841.71
2023-01-15T20:06:09.272Z,100838.80
2023-01-15T20:08:36.626Z,100840.29
2023-01-15T20:11:07.655Z,100841.91
2023-01-15T20:13:51.487Z,100841.30
2023-01-15T20:16:21.886Z,100830.77
2023-01-15T20:18:50.218Z,100831.59
2023-01-15T20:21:18.085Z,100829.75
2023-01-15T20:23:46.249Z,100828.87
2023-01-15T20:26:14.451Z,100832.42
2023-01-15T20:28:48.405Z,100829.37
2023-01-15T20:31:17.430Z,100825.44
2023-01-15T20:33:45.707Z,100822.38
2023-01-15T20:36:12.758Z,100823.82
2023-01-15T20:38:39.499Z,100817.39
2023-01-15T20:41:27.229Z,100810.79
2023-01-15T20:44:12.916Z,100804.85
2023-01-15T20:46:39.866Z,100803.06
2023-01-15T20:49:28.308Z,100802.83
2023-01-15T20:51:57.031Z,100800.98
2023-01-15T20:54:25.486Z,100806.33
2023-01-15T20:56:52.840Z,100805.61
2023-01-15T20:59:19.582Z,100801.81
2023-01-15T21:01:46.552Z,100799.23
2023-01-15T21:04:13.921Z,100793.70
2023-01-15T21:06:41.447Z,100791.36
2023-01-15T21:09:08.330Z,100790.20
2023-01-15T21:11:35.222Z,100787.41
2023-01-15T21:14:03.086Z,100788.63
2023-01-15T21:16:30.297Z,100792.17
2023-01-15T21:19:00.563Z,100791.08
2023-01-15T21:21:27.419Z,100791.75
2023-01-15T21:23:54.239Z,100792.77
2023-01-15T21:26:21.114Z,100793.22
2023-01-15T21:28:47.835Z,100787.70
2023-01-15T21:31:14.765Z,100778.56
2023-01-15T21:33:41.633Z,100774.38
2023-01-15T21:36:11.102Z,100774.02
2023-01-15T21:38:38.905Z,100777.77
2023-01-15T21:41:09.143Z,100783.45
2023-01-15T21:43:55.224Z,100787.52
2023-01-15T21:46:26.556Z,100791.67
2023-01-15T21:48:57.599Z,100789.38
2023-01-15T21:51:26.183Z,100783.96
2023-01-15T21:53:53.442Z,100781.70
2023-01-15T21:56:20.792Z,100780.58
2023-01-15T21:58:48.051Z,100780.86
2023-01-15T22:01:17.606Z,100778.48
2023-01-15T22:03:45.405Z,100779.20
2023-01-15T22:06:12.569Z,100779.44
2023-01-15T22:08:39.556Z,100775.12
2023-01-15T22:11:09.118Z,100777.83
2023-01-15T22:13:37.102Z,100779.91
2023-01-15T22:16:04.604Z,100784.17
2023-01-15T22:18:33.160Z,100778.55
2023-01-15T22:21:01.321Z,100780.31
2023-01-15T22:23:28.353Z,100777.55
2023-01-15T22:25:55.611Z,100770.25
2023-01-15T22:28:23.135Z,100764.11
2023-01-15T22:30:49.879Z,100760.63
2023-01-15T22:33:17.155Z,100755.61
2023-01-15T22:35:43.897Z,100752.56
2023-01-15T22:38:10.742Z,100741.77
2023-01-15T22:40:37.592Z,100738.23
2023-01-15T22:43:04.434Z,100744.52
2023-01-15T22:45:31.374Z,100743.56
2023-01-15T22:47:58.217Z,100739.19
2023-01-15T22:50:25.065Z,100739.39
2023-01-15T22:52:51.909Z,100737.94
2023-01-15T22:55:18.643Z,100738.52
2023-01-15T22:57:47.128Z,100732.73
2023-01-15T23:00:14.998Z,100724.35
2023-01-15T23:02:53.922Z,100713.20
2023-01-15T23:05:22.400Z,100709.41
2023-01-15T23:07:49.860Z,100704.12
2023-01-15T23:10:17.025Z,100702.73
2023-01-15T23:12:43.851Z,100705.58
2023-01-15T23:15:13.617Z,100704.83
2023-01-15T23:17:41.103Z,100700.50
2023-01-15T23:20:09.939Z,100692.05
2023-01-15T23:22:36.750Z,100691.10
2023-01-15T23:25:03.908Z,100694.41
2023-01-15T23:27:32.907Z,100686.38
2023-01-15T23:29:59.841Z,100687.34
2023-01-15T23:32:27.508Z,100684.48
2023-01-15T23:34:54.557Z,100679.16
2023-01-15T23:37:21.601Z,100671.09
2023-01-15T23:39:48.375Z,100667.49
2023-01-15T23:42:34.229Z,100664.37
2023-01-15T23:45:20.119Z,100659.55
2023-01-15T23:47:46.969Z,100657.60
2023-01-15T23:50:14.626Z,100658.81
2023-01-15T23:52:41.795Z,100655.98
2023-01-15T23:55:09.700Z,100659.39
2023-01-15T23:57:36.486Z,100653.81
